Time;durP1;ratioP1;P1;durP2;ratioP2;P2;SDS_P1;SDS_P2;PMS_P1;PMS_P2;Temp;Humidity;BMP_temperature;BMP_pressure;BME280_temperature;BME280_humidity;BME280_pressure;Samples;Min_cycle;Max_cycle;Signal;HPM_P1;HPM_P2
2022/01/01 00:02:57;;;;;;;13.20;9.25;;;19.20;66.50;;;;;;10585987;28;20116;-48
2022/01/01 00:08:05;;;;;;;12.15;8.48;;;19.20;66.40;;;;;;10585632;28;20048;-48
2022/01/01 00:13:10;;;;;;;13.27;8.50;;;19.20;66.50;;;;;;10585884;28;20052;-49
2022/01/01 00:18:16;;;;;;;12.13;8.20;;;19.20;66.40;;;;;;10585031;28;20553;-49
2022/01/01 00:23:21;;;;;;;13.90;8.90;;;19.10;66.40;;;;;;10585894;28;20092;-48
2022/01/01 00:28:26;;;;;;;15.25;9.05;;;19.10;66.40;;;;;;10585423;28;20093;-49
2022/01/01 00:33:32;;;;;;;13.73;9.57;;;19.10;66.40;;;;;;10584565;28;20085;-49
2022/01/01 00:38:37;;;;;;;13.20;8.95;;;19.10;66.40;;;;;;10585249;28;20391;-48
2022/01/01 00:43:42;;;;;;;16.27;10.57;;;19.10;66.40;;;;;;10585030;28;20043;-49
2022/01/01 00:48:47;;;;;;;17.70;11.00;;;19.10;66.40;;;;;;10584503;28;20055;-48
2022/01/01 00:54:03;;;;;;;16.25;11.30;;;19.10;66.40;;;;;;10583062;28;20114;-48
2022/01/01 00:59:08;;;;;;;17.13;11.05;;;19.00;66.30;;;;;;10583436;28;20047;-49
2022/01/01 01:04:13;;;;;;;15.95;10.40;;;19.10;66.40;;;;;;10583507;28;20097;-48
2022/01/01 01:09:18;;;;;;;15.27;9.68;;;19.00;66.30;;;;;;10583722;28;20132;-49
2022/01/01 01:14:24;;;;;;;12.95;9.23;;;19.00;66.30;;;;;;10583026;28;20066;-49
2022/01/01 01:19:29;;;;;;;14.98;9.77;;;19.00;66.30;;;;;;10582904;28;20075;-49
2022/01/01 01:24:35;;;;;;;12.95;8.82;;;18.90;66.20;;;;;;10582788;28;20051;-49
2022/01/01 01:29:42;;;;;;;12.93;7.95;;;18.90;66.20;;;;;;10582412;28;20056;-49
2022/01/01 01:34:47;;;;;;;12.15;8.13;;;18.90;66.20;;;;;;10582409;28;20043;-48
2022/01/01 01:39:52;;;;;;;12.65;7.22;;;18.90;66.20;;;;;;10583101;28;20043;-48
2022/01/01 01:45:00;;;;;;;12.50;7.82;;;18.90;66.20;;;;;;10581746;28;20051;-51
2022/01/01 01:50:07;;;;;;;;;;;18.90;66.20;;;;;;10582718;28;20040;-48
2022/01/01 01:55:12;;;;;;;10.73;7.00;;;18.90;66.20;;;;;;10581520;28;19919;-48
2022/01/01 02:00:53;;;;;;;9.13;6.40;;;18.90;66.10;;;;;;10582128;28;20040;-48
2022/01/01 02:05:53;;;;;;;9.10;6.38;;;18.90;66.10;;;;;;10581237;28;20039;-48
2022/01/01 02:10:58;;;;;;;9.43;6.47;;;18.90;66.10;;;;;;10581026;28;20048;-49
2022/01/01 02:21:28;;;;;;;9.02;6.25;;;18.80;66.00;;;;;;10581198;28;20043;-50
2022/01/01 02:26:34;;;;;;;7.75;5.97;;;18.80;66.00;;;;;;10581075;28;20047;-49
2022/01/01 02:31:39;;;;;;;8.27;5.60;;;18.80;66.00;;;;;;10580782;28;20500;-49
2022/01/01 02:36:44;;;;;;;8.48;5.40;;;18.80;66.00;;;;;;10581399;28;20055;-48
2022/01/01 02:41:51;;;;;;;7.75;5.30;;;18.80;66.00;;;;;;10580828;28;20100;-48
2022/01/01 02:46:56;;;;;;;7.65;5.47;;;18.80;65.90;;;;;;10580584;28;20044;-49
2022/01/01 02:52:02;;;;;;;8.65;5.07;;;18.80;65.90;;;;;;10581198;28;20373;-48
2022/01/01 02:57:07;;;;;;;6.60;4.07;;;18.80;65.90;;;;;;10582737;28;20040;-49
2022/01/01 03:02:11;;;;;;;5.70;4.57;;;18.70;65.90;;;;;;10580862;28;20040;-48
2022/01/01 03:07:17;;;;;;;6.75;4.00;;;18.70;66.50;;;;;;10580026;28;20055;-49
2022/01/01 03:12:21;;;;;;;5.80;4.10;;;18.70;65.80;;;;;;10580597;28;20039;-49
2022/01/01 03:17:26;;;;;;;4.63;3.60;;;18.70;65.80;;;;;;10583810;28;20096;-48
2022/01/01 03:22:31;;;;;;;5.63;3.63;;;18.70;65.80;;;;;;10588213;28;20077;-49
2022/01/01 03:27:36;;;;;;;5.13;3.40;;;18.70;65.80;;;;;;10587112;28;20051;-50
2022/01/01 03:32:41;;;;;;;4.65;3.30;;;18.60;65.70;;;;;;10586952;28;20044;-49
2022/01/01 03:37:46;;;;;;;4.10;2.88;;;18.60;65.60;;;;;;10587076;28;20092;-49
2022/01/01 03:42:50;;;;;;;4.20;3.08;;;18.60;65.70;;;;;;10586840;28;20051;-48
2022/01/01 03:47:55;;;;;;;3.85;2.78;;;18.60;65.70;;;;;;10586407;28;20101;-48
2022/01/01 03:53:01;;;;;;;3.05;2.50;;;18.60;65.70;;;;;;10586371;28;20488;-49
2022/01/01 03:58:06;;;;;;;3.45;2.55;;;18.60;65.60;;;;;;10585779;28;20051;-49
2022/01/01 04:03:17;;;;;;;2.95;2.47;;;18.60;65.60;;;;;;10585789;28;20438;-48
2022/01/01 04:08:22;;;;;;;3.83;2.20;;;18.60;65.60;;;;;;10585715;28;20051;-48
2022/01/01 04:13:28;;;;;;;3.97;2.28;;;18.50;65.60;;;;;;10585093;28;20048;-49
2022/01/01 04:18:39;;;;;;;2.97;2.25;;;18.60;65.70;;;;;;10585575;28;20416;-48
2022/01/01 04:23:47;;;;;;;2.45;2.05;;;18.60;65.60;;;;;;10585257;28;20101;-48
2022/01/01 04:28:51;;;;;;;2.17;1.70;;;18.70;65.60;;;;;;10585107;28;20052;-49
2022/01/01 04:33:57;;;;;;;1.83;1.67;;;18.90;65.60;;;;;;10584531;28;20699;-49
2022/01/01 04:39:02;;;;;;;2.08;1.63;;;18.90;65.50;;;;;;10584673;28;20116;-48
2022/01/01 04:44:06;;;;;;;1.42;1.33;;;19.00;65.40;;;;;;10584335;28;20050;-49
2022/01/01 04:49:11;;;;;;;1.73;1.50;;;19.20;65.40;;;;;;10584067;28;20116;-49
2022/01/01 04:54:17;;;;;;;1.98;1.67;;;19.20;65.20;;;;;;10583997;28;20093;-49
2022/01/01 04:59:22;;;;;;;2.83;1.50;;;19.40;65.30;;;;;;10583552;28;20420;-49
2022/01/01 05:04:27;;;;;;;1.80;1.40;;;19.40;65.10;;;;;;10583488;28;20461;-49
2022/01/01 05:09:33;;;;;;;3.25;1.42;;;19.50;65.00;;;;;;10583928;28;20052;-49
2022/01/01 05:14:38;;;;;;;2.10;1.40;;;19.60;64.90;;;;;;10582983;28;20073;-50
2022/01/01 05:19:42;;;;;;;1.23;1.13;;;19.70;64.90;;;;;;10583487;28;20101;-50
2022/01/01 05:24:47;;;;;;;1.10;1.00;;;19.70;64.80;;;;;;10582580;28;20051;-49
2022/01/01 05:29:53;;;;;;;1.27;1.17;;;19.80;64.80;;;;;;10582095;28;20101;-49
2022/01/01 05:34:57;;;;;;;1.30;1.20;;;19.90;64.80;;;;;;10582215;28;20484;-49
2022/01/01 05:40:03;;;;;;;1.92;1.05;;;19.90;64.60;;;;;;10582224;28;20051;-49
2022/01/01 05:45:09;;;;;;;1.90;1.20;;;20.00;64.60;;;;;;10581919;28;20505;-49
2022/01/01 05:50:14;;;;;;;1.23;0.98;;;20.00;64.60;;;;;;10582603;28;20047;-50
2022/01/01 05:55:19;;;;;;;1.00;1.00;;;20.10;64.60;;;;;;10581516;28;20556;-50
2022/01/01 06:00:24;;;;;;;1.40;1.30;;;20.10;64.50;;;;;;10564058;28;20048;-48
2022/01/01 06:05:30;;;;;;;2.70;1.10;;;20.20;64.50;;;;;;10581437;28;20557;-48
2022/01/01 06:10:35;;;;;;;1.00;1.00;;;20.30;64.50;;;;;;10581644;28;20055;-49
2022/01/01 06:15:42;;;;;;;1.20;1.10;;;20.30;64.40;;;;;;10581279;28;20043;-50
2022/01/01 06:20:47;;;;;;;2.07;0.87;;;20.30;64.30;;;;;;10581151;28;20056;-49
2022/01/01 06:25:52;;;;;;;1.05;0.93;;;20.40;64.30;;;;;;10581074;28;20156;-49
2022/01/01 06:30:58;;;;;;;1.05;1.00;;;20.50;64.30;;;;;;10580775;28;20450;-51
2022/01/01 06:36:03;;;;;;;1.17;1.00;;;20.50;64.20;;;;;;10581648;28;20043;-49
2022/01/01 06:41:08;;;;;;;1.40;1.00;;;20.50;64.20;;;;;;10581043;28;20051;-50
2022/01/01 06:46:13;;;;;;;1.25;0.93;;;20.50;64.20;;;;;;10580678;28;20055;-49
2022/01/01 06:51:19;;;;;;;1.02;1.00;;;20.60;64.20;;;;;;10582771;28;20480;-50
2022/01/01 06:56:24;;;;;;;0.80;0.80;;;20.70;64.20;;;;;;10589268;28;20392;-51
2022/01/01 07:01:29;;;;;;;1.42;1.00;;;20.70;64.20;;;;;;10588439;28;20561;-49
2022/01/01 07:06:34;;;;;;;0.68;0.68;;;20.70;64.10;;;;;;10589087;28;20538;-49
2022/01/01 07:11:40;;;;;;;3.22;0.80;;;20.80;64.00;;;;;;10588410;28;20096;-49
2022/01/01 07:16:45;;;;;;;1.85;0.80;;;20.80;63.90;;;;;;10587963;28;20048;-50
2022/01/01 07:21:50;;;;;;;0.70;0.70;;;20.90;64.00;;;;;;10587758;28;20093;-48
2022/01/01 07:26:55;;;;;;;0.60;0.60;;;20.90;63.90;;;;;;10588191;28;20059;-49
2022/01/01 07:31:59;;;;;;;0.70;0.70;;;20.90;63.90;;;;;;10587096;28;20039;-49
2022/01/01 07:37:04;;;;;;;1.52;0.70;;;20.90;63.80;;;;;;10586849;28;20056;-49
2022/01/01 07:42:12;;;;;;;0.57;0.57;;;20.90;63.80;;;;;;10588149;28;20065;-49
2022/01/01 07:47:17;;;;;;;0.60;0.60;;;20.90;63.70;;;;;;10586675;28;20051;-50
2022/01/01 07:52:22;;;;;;;0.90;0.77;;;21.00;63.60;;;;;;10586633;28;20047;-50
2022/01/01 07:57:27;;;;;;;0.65;0.63;;;20.90;63.80;;;;;;10586795;28;20044;-49
2022/01/01 08:02:32;;;;;;;0.80;0.73;;;20.90;63.90;;;;;;10585752;28;20621;-49
2022/01/01 08:07:38;;;;;;;0.70;0.70;;;20.90;63.80;;;;;;10585802;28;20051;-48
2022/01/01 08:13:05;;;;;;;0.88;0.65;;;20.90;63.80;;;;;;10585753;28;20048;-51
2022/01/01 08:18:10;;;;;;;0.70;0.70;;;20.90;63.70;;;;;;10586097;28;20057;-49
2022/01/01 08:23:15;;;;;;;0.85;0.80;;;20.90;63.80;;;;;;10585797;28;20047;-49
2022/01/01 08:28:20;;;;;;;0.63;0.63;;;20.80;63.70;;;;;;10585119;28;20404;-51
2022/01/01 08:33:25;;;;;;;0.95;0.73;;;20.80;63.70;;;;;;10584820;28;20066;-49
2022/01/01 08:38:32;;;;;;;0.70;0.70;;;20.80;63.80;;;;;;10585139;28;20048;-50
2022/01/01 08:43:38;;;;;;;1.25;0.77;;;20.70;63.70;;;;;;10584989;28;20044;-48
2022/01/01 08:48:43;;;;;;;1.55;0.80;;;20.70;63.80;;;;;;10584315;28;20124;-50
2022/01/01 08:53:49;;;;;;;1.83;0.70;;;20.70;63.80;;;;;;10583741;28;20101;-49
2022/01/01 08:58:54;;;;;;;1.25;0.80;;;20.60;63.80;;;;;;10565643;28;20389;-49
2022/01/01 09:03:59;;;;;;;3.15;0.70;;;20.60;63.90;;;;;;10583594;28;20557;-49
2022/01/01 09:09:04;;;;;;;1.05;0.80;;;20.50;63.80;;;;;;10583308;28;20108;-50
2022/01/01 09:14:09;;;;;;;1.20;0.90;;;20.50;63.80;;;;;;10583504;28;20039;-48
2022/01/01 09:19:14;;;;;;;0.90;0.70;;;20.50;63.90;;;;;;10583587;28;20073;-49
2022/01/01 09:24:19;;;;;;;1.27;0.90;;;20.40;63.90;;;;;;10582591;28;20050;-50
2022/01/01 09:29:23;;;;;;;1.30;0.80;;;20.40;63.90;;;;;;10582669;28;20104;-48
2022/01/01 09:34:28;;;;;;;0.85;0.80;;;20.40;63.90;;;;;;10582407;28;20047;-49
2022/01/01 09:39:34;;;;;;;1.35;0.80;;;20.30;63.90;;;;;;10582248;28;20093;-48
2022/01/01 09:44:40;;;;;;;1.15;0.70;;;20.30;64.00;;;;;;10582648;28;20081;-50
2022/01/01 09:49:46;;;;;;;0.88;0.70;;;20.20;63.90;;;;;;10582516;28;20366;-49
2022/01/01 09:54:52;;;;;;;1.10;0.70;;;20.30;64.00;;;;;;10564027;28;20104;-49
2022/01/01 09:59:56;;;;;;;0.60;0.60;;;20.20;64.00;;;;;;10581911;28;20048;-50
2022/01/01 10:05:06;;;;;;;2.58;0.90;;;20.20;64.00;;;;;;10581526;28;20047;-48
2022/01/01 10:10:23;;;;;;;0.60;0.60;;;20.20;64.10;;;;;;10581036;28;20047;-48
2022/01/01 10:15:35;;;;;;;0.98;0.80;;;20.10;64.00;;;;;;10581110;28;20043;-48
2022/01/01 10:20:43;;;;;;;2.05;1.02;;;20.10;64.00;;;;;;10581267;28;20047;-48
2022/01/01 10:31:12;;;;;;;1.73;1.60;;;20.10;64.00;;;;;;10589677;28;19920;-49
2022/01/01 10:36:22;;;;;;;1.98;1.73;;;20.00;64.00;;;;;;10571519;28;20043;-48
2022/01/01 10:41:27;;;;;;;5.00;3.30;;;20.00;64.00;;;;;;10589444;28;20105;-48
2022/01/01 10:46:37;;;;;;;7.68;4.25;;;20.00;63.90;;;;;;10589867;28;20047;-49
2022/01/01 10:51:42;;;;;;;4.72;4.13;;;19.90;63.90;;;;;;10589519;28;20097;-49
2022/01/01 10:56:47;;;;;;;6.95;4.18;;;19.90;63.90;;;;;;10589145;28;20488;-48
2022/01/01 11:01:56;;;;;;;4.78;3.92;;;19.90;63.90;;;;;;10589038;28;20050;-50
2022/01/01 11:07:02;;;;;;;4.15;3.67;;;19.90;63.90;;;;;;10570845;28;20092;-48
2022/01/01 11:12:07;;;;;;;4.28;3.70;;;19.90;63.90;;;;;;10587915;28;20051;-49
2022/01/01 11:17:13;;;;;;;20.17;10.45;;;19.90;63.90;;;;;;10588951;28;20109;-49
2022/01/01 11:22:23;;;;;;;37.10;16.20;;;19.80;63.80;;;;;;10587700;28;20052;-49
2022/01/01 11:27:28;;;;;;;29.88;14.45;;;19.80;63.80;;;;;;10587344;28;20081;-49
2022/01/01 11:32:52;;;;;;;19.42;10.73;;;19.70;63.80;;;;;;10587245;28;20052;-48
2022/01/01 11:38:12;;;;;;;19.83;10.50;;;19.70;63.80;;;;;;10569262;28;20039;-48
2022/01/01 11:43:34;;;;;;;28.13;13.23;;;19.70;63.90;;;;;;10586907;28;20073;-49
2022/01/01 11:48:41;;;;;;;32.33;14.90;;;19.70;63.90;;;;;;10569540;28;20044;-48
2022/01/01 11:54:05;;;;;;;32.17;14.32;;;19.70;63.90;;;;;;10586391;28;20047;-49
2022/01/01 11:59:29;;;;;;;34.85;14.55;;;19.60;63.90;;;;;;10586452;28;20047;-50
2022/01/01 12:04:44;;;;;;;25.05;11.82;;;19.60;63.90;;;;;;10585958;28;20052;-49
2022/01/01 12:10:07;;;;;;;18.33;8.25;;;19.60;63.90;;;;;;10586711;28;20553;-49
2022/01/01 12:15:23;;;;;;;14.77;6.93;;;19.60;63.90;;;;;;10585873;28;20048;-48
2022/01/01 12:20:32;;;;;;;15.02;6.95;;;19.60;64.00;;;;;;10585550;28;20108;-49
2022/01/01 12:25:39;;;;;;;17.70;8.15;;;19.50;63.90;;;;;;10585760;28;20073;-49
2022/01/01 12:30:52;;;;;;;17.85;8.30;;;19.50;63.90;;;;;;10585907;28;20040;-48
2022/01/01 12:36:24;;;;;;;21.65;9.93;;;19.50;63.90;;;;;;10585078;28;20047;-49
2022/01/01 12:41:34;;;;;;;21.52;10.15;;;19.50;63.90;;;;;;10584521;28;20093;-50
2022/01/01 12:46:46;;;;;;;15.68;7.90;;;19.50;63.90;;;;;;10581722;28;20488;-50
2022/01/01 12:51:56;;;;;;;12.90;6.03;;;19.50;63.90;;;;;;10560702;28;20100;-49
2022/01/01 12:57:04;;;;;;;10.57;4.50;;;19.40;64.10;;;;;;10550021;28;20043;-49
2022/01/01 13:02:14;;;;;;;8.38;4.10;;;19.40;64.30;;;;;;10583850;28;20055;-49
2022/01/01 13:07:21;;;;;;;5.88;3.15;;;19.40;64.50;;;;;;10548961;28;20097;-50
2022/01/01 13:12:31;;;;;;;4.90;2.72;;;19.40;64.70;;;;;;10532965;28;20477;-49
2022/01/01 13:17:40;;;;;;;7.05;3.28;;;19.40;65.00;;;;;;10582658;28;20063;-50
2022/01/01 13:22:45;;;;;;;;;;;19.40;65.20;;;;;;10548714;28;20062;-49
2022/01/01 13:27:49;;;;;;;9.68;5.05;;;19.40;65.50;;;;;;10540008;28;20426;-51
2022/01/01 13:32:54;;;;;;;9.18;4.63;;;19.40;65.70;;;;;;10540194;28;20411;-50
2022/01/01 13:37:59;;;;;;;9.38;5.18;;;19.40;65.80;;;;;;10490174;28;20097;-48
2022/01/01 13:43:10;;;;;;;12.52;5.90;;;19.40;65.90;;;;;;10540807;28;20139;-48
2022/01/01 13:48:15;;;;;;;11.18;6.10;;;19.40;65.90;;;;;;10540131;28;20400;-50
2022/01/01 13:53:20;;;;;;;11.13;5.95;;;19.40;66.00;;;;;;10521871;28;20040;-49
2022/01/01 13:58:27;;;;;;;12.15;6.90;;;19.40;66.00;;;;;;10539404;28;20455;-50
2022/01/01 14:03:32;;;;;;;11.10;6.05;;;19.40;66.00;;;;;;10539295;28;20050;-47
2022/01/01 14:08:37;;;;;;;13.73;6.15;;;19.40;66.10;;;;;;10488949;28;20476;-48
2022/01/01 14:14:30;;;;;;;10.18;6.05;;;19.40;66.10;;;;;;10534734;27;20912;-48
2022/01/01 14:19:36;;;;;;;10.65;6.03;;;19.40;66.20;;;;;;10547091;28;20401;-47
2022/01/01 14:24:52;;;;;;;10.45;5.88;;;19.40;66.20;;;;;;10532990;28;20059;-49
2022/01/01 14:29:56;;;;;;;10.32;5.38;;;19.40;66.20;;;;;;10533137;28;20066;-48
2022/01/01 14:35:05;;;;;;;10.88;5.00;;;19.40;66.30;;;;;;10533202;28;20093;-48
2022/01/01 14:40:11;;;;;;;13.75;5.47;;;19.40;66.30;;;;;;10531452;28;20090;-48
2022/01/01 14:45:17;;;;;;;9.57;5.15;;;19.40;66.20;;;;;;10530289;28;20093;-48
2022/01/01 14:50:23;;;;;;;11.43;6.15;;;19.30;66.20;;;;;;10530787;28;20483;-49
2022/01/01 14:55:58;;;;;;;15.38;6.70;;;19.30;66.20;;;;;;10528004;28;20105;-49
2022/01/01 15:01:03;;;;;;;16.40;7.60;;;19.30;66.10;;;;;;10528706;28;20040;-49
2022/01/01 15:06:12;;;;;;;19.20;7.90;;;19.30;66.20;;;;;;10530389;28;20398;-48
2022/01/01 15:11:18;;;;;;;18.92;9.05;;;19.30;66.20;;;;;;10528877;28;20066;-48
2022/01/01 15:16:24;;;;;;;23.90;9.63;;;19.30;66.30;;;;;;10529090;28;20109;-48
2022/01/01 15:21:40;;;;;;;26.10;10.38;;;19.30;66.40;;;;;;10525053;28;20036;-48
2022/01/01 15:26:50;;;;;;;22.35;9.52;;;19.30;66.40;;;;;;10501191;28;20477;-48
2022/01/01 15:37:24;;;;;;;22.58;9.00;;;19.20;66.40;;;;;;10501995;28;20386;-49
2022/01/01 15:42:29;;;;;;;18.65;8.88;;;19.30;66.50;;;;;;10498945;28;20040;-49
2022/01/01 15:47:34;;;;;;;22.77;7.97;;;19.40;66.50;;;;;;10502299;28;20053;-49
2022/01/01 15:52:43;;;;;;;17.67;7.43;;;19.50;66.40;;;;;;10501441;28;20044;-50
2022/01/01 15:57:56;;;;;;;16.05;8.00;;;19.50;66.30;;;;;;10499521;28;20040;-49
2022/01/01 16:03:26;;;;;;;14.63;7.40;;;19.70;66.20;;;;;;10498807;28;20044;-49
2022/01/01 16:08:34;;;;;;;18.55;8.50;;;19.80;66.10;;;;;;10499181;28;20110;-49
2022/01/01 16:13:47;;;;;;;18.42;7.80;;;19.80;66.60;;;;;;10498945;28;20482;-49
2022/01/01 16:18:55;;;;;;;19.83;9.82;;;19.80;65.90;;;;;;10501361;28;20094;-48
2022/01/01 16:24:05;;;;;;;20.42;8.75;;;19.90;65.90;;;;;;10500539;28;20551;-48
2022/01/01 16:29:10;;;;;;;23.98;9.13;;;19.90;65.90;;;;;;10500476;28;20546;-49
2022/01/01 16:34:19;;;;;;;24.25;8.77;;;20.00;65.90;;;;;;10491664;28;20045;-49
2022/01/01 16:39:23;;;;;;;24.02;9.10;;;20.00;65.90;;;;;;10499915;28;20033;-49
2022/01/01 16:44:57;;;;;;;23.65;8.90;;;20.00;65.70;;;;;;10498400;28;20037;-49
2022/01/01 16:50:16;;;;;;;22.05;10.02;;;20.10;65.70;;;;;;10497342;28;20405;-47
2022/01/01 16:55:33;;;;;;;22.45;9.30;;;20.10;65.60;;;;;;10496681;28;20048;-49
2022/01/01 17:00:45;;;;;;;47.53;10.48;;;20.20;65.60;;;;;;10497155;28;20129;-49
2022/01/01 17:05:53;;;;;;;21.98;9.73;;;20.20;65.60;;;;;;10499440;28;20057;-50
2022/01/01 17:10:57;;;;;;;16.45;8.73;;;20.20;65.40;;;;;;10498757;28;20106;-49
2022/01/01 17:16:16;;;;;;;18.45;8.68;;;20.20;65.40;;;;;;10497804;28;20497;-48
2022/01/01 17:21:22;;;;;;;20.50;8.35;;;20.20;65.50;;;;;;10499628;28;20122;-49
2022/01/01 17:26:33;;;;;;;17.05;8.45;;;20.20;65.50;;;;;;10498615;28;20550;-48
2022/01/01 17:31:39;;;;;;;16.83;8.13;;;20.20;65.50;;;;;;10497612;28;20037;-49
2022/01/01 17:42:05;;;;;;;16.48;8.38;;;20.20;65.50;;;;;;10498345;28;20066;-50
2022/01/01 17:47:14;;;;;;;13.90;7.47;;;20.20;65.50;;;;;;10497796;28;20052;-50
2022/01/01 17:52:28;;;;;;;14.77;7.60;;;20.20;65.50;;;;;;10498348;28;20044;-48
2022/01/01 17:57:58;;;;;;;22.40;7.38;;;20.20;65.60;;;;;;10497033;28;20718;-49
2022/01/01 18:03:05;;;;;;;12.10;6.35;;;20.20;65.60;;;;;;10496101;28;20106;-49
2022/01/01 18:08:17;;;;;;;14.13;7.47;;;20.10;65.60;;;;;;10493131;28;20547;-49
2022/01/01 18:13:32;;;;;;;18.33;8.18;;;20.10;65.60;;;;;;10495905;28;20071;-48
2022/01/01 18:19:02;;;;;;;19.23;7.70;;;20.00;65.80;;;;;;10496865;28;20052;-48
2022/01/01 18:24:19;;;;;;;15.65;6.97;;;20.00;65.90;;;;;;10496542;28;20048;-48
2022/01/01 18:29:26;;;;;;;17.50;6.72;;;20.00;65.90;;;;;;10497533;28;20041;-51
2022/01/01 18:34:31;;;;;;;19.33;6.55;;;19.90;65.80;;;;;;10497432;28;20041;-49
2022/01/01 18:39:37;;;;;;;16.50;6.68;;;19.90;65.80;;;;;;10470497;28;20049;-48
2022/01/01 18:44:42;;;;;;;15.50;6.43;;;19.90;65.80;;;;;;10485941;28;20082;-48
2022/01/01 18:49:47;;;;;;;19.63;7.13;;;19.80;65.90;;;;;;10478709;28;20094;-49
2022/01/01 18:55:02;;;;;;;15.45;7.00;;;19.80;65.90;;;;;;10495015;28;20045;-49
2022/01/01 19:00:15;;;;;;;14.75;6.25;;;19.80;66.00;;;;;;10503695;28;20447;-49
2022/01/01 19:05:23;;;;;;;15.55;5.78;;;19.80;66.30;;;;;;10503455;28;20036;-49
2022/01/01 19:10:36;;;;;;;13.25;5.38;;;19.80;66.60;;;;;;10504131;28;20118;-48
2022/01/01 19:15:45;;;;;;;13.23;5.68;;;19.80;66.80;;;;;;10503129;28;20449;-50
2022/01/01 19:20:53;;;;;;;13.95;5.32;;;19.80;67.00;;;;;;10503849;28;20051;-50
2022/01/01 19:25:59;;;;;;;10.82;5.10;;;19.80;67.00;;;;;;10486680;28;20057;-48
2022/01/01 19:31:04;;;;;;;13.38;5.65;;;19.80;67.00;;;;;;10502533;28;20067;-48
2022/01/01 19:36:09;;;;;;;9.10;4.47;;;19.80;67.10;;;;;;10501821;28;20052;-48
2022/01/01 19:41:18;;;;;;;15.35;4.55;;;19.80;67.00;;;;;;10501340;28;20554;-50
2022/01/01 19:46:38;;;;;;;13.27;4.65;;;19.70;67.20;;;;;;10502081;28;20040;-48
2022/01/01 19:51:43;;;;;;;9.50;4.13;;;19.70;67.40;;;;;;10501872;28;20094;-50
2022/01/01 19:56:53;;;;;;;7.63;4.15;;;19.80;67.30;;;;;;10502315;28;20102;-48
2022/01/01 20:01:58;;;;;;;9.10;4.60;;;19.80;67.30;;;;;;10499901;28;20071;-48
2022/01/01 20:07:03;;;;;;;12.25;4.47;;;19.90;67.00;;;;;;10497850;28;20110;-48
2022/01/01 20:12:08;;;;;;;11.30;3.33;;;20.00;67.00;;;;;;10500030;28;20181;-49
2022/01/01 20:17:13;;;;;;;11.13;2.90;;;20.00;67.10;;;;;;10500696;28;20102;-49
2022/01/01 20:22:20;;;;;;;12.00;2.70;;;20.10;67.20;;;;;;10501391;28;20052;-48
2022/01/01 20:27:26;;;;;;;13.98;2.45;;;20.20;67.10;;;;;;10499814;28;20036;-49
2022/01/01 20:32:32;;;;;;;5.13;1.95;;;20.20;67.10;;;;;;10500759;28;20074;-49
2022/01/01 20:37:37;;;;;;;9.85;2.00;;;20.30;66.90;;;;;;10500910;28;20041;-47
2022/01/01 20:42:42;;;;;;;8.00;1.73;;;20.40;67.50;;;;;;10500384;28;20049;-48
2022/01/01 20:47:47;;;;;;;5.28;1.60;;;20.40;66.80;;;;;;10497684;28;20053;-49
2022/01/01 20:52:52;;;;;;;3.55;1.52;;;20.50;66.60;;;;;;10499817;28;20554;-48
2022/01/01 20:57:58;;;;;;;2.88;1.70;;;20.50;66.50;;;;;;10499882;28;20053;-49
2022/01/01 21:03:11;;;;;;;4.07;1.77;;;20.60;66.30;;;;;;10499570;28;20049;-47
2022/01/01 21:08:17;;;;;;;3.55;1.65;;;20.70;66.20;;;;;;10499133;28;20052;-49
2022/01/01 21:13:23;;;;;;;3.33;1.58;;;20.70;66.10;;;;;;10498662;28;20052;-49
2022/01/01 21:18:28;;;;;;;3.50;1.67;;;20.60;65.90;;;;;;10499354;28;20063;-49
2022/01/01 21:23:32;;;;;;;5.05;1.73;;;20.70;65.90;;;;;;10498648;28;20041;-48
2022/01/01 21:28:38;;;;;;;2.88;1.83;;;20.70;65.90;;;;;;10498678;28;20052;-50
2022/01/01 21:34:02;;;;;;;3.05;1.40;;;20.70;65.80;;;;;;10498351;28;20075;-49
2022/01/01 21:39:27;;;;;;;3.70;1.42;;;20.70;66.30;;;;;;10498276;28;20052;-48
2022/01/01 21:44:50;;;;;;;3.40;1.35;;;20.70;65.70;;;;;;10498606;28;20405;-48
2022/01/01 21:50:14;;;;;;;6.10;1.85;;;20.70;65.70;;;;;;10497040;28;20049;-49
2022/01/01 21:55:40;;;;;;;4.40;1.90;;;20.70;65.70;;;;;;10497763;28;20049;-48
2022/01/01 22:01:03;;;;;;;11.75;2.00;;;20.60;65.60;;;;;;10497706;28;20048;-47
2022/01/01 22:06:26;;;;;;;3.50;1.85;;;20.60;65.60;;;;;;10497608;28;20558;-47
2022/01/01 22:11:50;;;;;;;4.65;1.92;;;20.60;65.60;;;;;;10497478;28;20127;-49
2022/01/01 22:17:13;;;;;;;3.70;1.70;;;20.50;65.60;;;;;;10497344;28;20114;-48
2022/01/01 22:22:37;;;;;;;5.45;1.77;;;20.50;65.60;;;;;;10497727;28;20113;-48
2022/01/01 22:28:01;;;;;;;5.82;1.65;;;20.50;65.70;;;;;;10497663;28;20037;-48
2022/01/01 22:33:25;;;;;;;7.55;1.52;;;20.50;65.70;;;;;;10500752;28;20044;-49
2022/01/01 22:38:48;;;;;;;8.55;1.80;;;20.40;65.80;;;;;;10505277;28;20049;-49
2022/01/01 22:44:12;;;;;;;4.55;1.60;;;20.40;65.90;;;;;;10505534;28;20094;-49
2022/01/01 22:49:35;;;;;;;3.15;1.63;;;20.40;66.00;;;;;;10504811;28;20067;-48
2022/01/01 22:54:58;;;;;;;3.63;1.83;;;20.30;66.10;;;;;;10504986;28;20447;-47
2022/01/01 23:00:30;;;;;;;3.08;1.80;;;20.30;66.30;;;;;;10505202;28;20071;-49
2022/01/01 23:05:54;;;;;;;4.50;2.00;;;20.30;66.40;;;;;;10503260;28;20102;-47
2022/01/01 23:11:18;;;;;;;4.18;2.05;;;20.30;66.70;;;;;;10503663;28;20513;-48
2022/01/01 23:16:43;;;;;;;3.92;2.17;;;20.20;66.90;;;;;;10503801;28;20086;-49
2022/01/01 23:22:10;;;;;;;5.90;2.15;;;20.20;66.90;;;;;;10503146;28;20086;-49
2022/01/01 23:27:33;;;;;;;14.45;2.42;;;20.30;68.90;;;;;;10501974;28;20040;-46
2022/01/01 23:32:57;;;;;;;22.63;2.65;;;20.50;67.80;;;;;;10503271;28;20067;-48
2022/01/01 23:38:22;;;;;;;14.38;2.53;;;20.60;67.90;;;;;;10503007;28;20052;-49
2022/01/01 23:43:45;;;;;;;19.38;2.67;;;20.40;68.10;;;;;;10502313;28;20425;-49
2022/01/01 23:49:08;;;;;;;10.27;2.35;;;20.30;68.30;;;;;;10503283;28;20086;-49
2022/01/01 23:54:57;;;;;;;16.35;2.65;;;20.30;68.30;;;;;;10503038;28;20342;-49
